Time;durP1;ratioP1;P1;durP2;ratioP2;P2;SDS_P1;SDS_P2;PMS_P1;PMS_P2;Temp;Humidity;BMP_temperature;BMP_pressure;BME280_temperature;BME280_humidity;BME280_pressure;Samples;Min_cycle;Max_cycle;Signal;HPM_P1;HPM_P2
2023/06/29 00:01:11;;;;;;;2.40;1.45;;;18.50;99.90;;;;;;4993040;28;20035;-71
2023/06/29 00:03:41;;;;;;;3.20;1.40;;;18.20;99.90;;;;;;5004631;28;20169;-71
2023/06/29 00:06:07;;;;;;;3.22;1.30;;;18.20;99.90;;;;;;5009220;28;20041;-70
2023/06/29 00:08:36;;;;;;;1.73;1.10;;;18.20;99.90;;;;;;5004694;28;20038;-70
2023/06/29 00:11:07;;;;;;;2.33;1.48;;;18.20;99.90;;;;;;4994248;28;20026;-70
2023/06/29 00:13:33;;;;;;;;;;;18.20;99.90;;;;;;4989434;28;20510;-71
2023/06/29 00:16:00;;;;;;;2.10;1.40;;;18.00;99.90;;;;;;4992765;28;19916;-70
2023/06/29 00:18:30;;;;;;;3.92;1.40;;;17.90;99.90;;;;;;5004805;28;20093;-70
2023/06/29 00:20:57;;;;;;;3.65;1.55;;;17.80;99.90;;;;;;4993811;28;20038;-70
2023/06/29 00:23:24;;;;;;;2.88;1.27;;;17.70;99.90;;;;;;4989332;28;20037;-70
2023/06/29 00:25:53;;;;;;;2.88;1.90;;;17.80;99.90;;;;;;5008711;28;20026;-70
2023/06/29 00:28:18;;;;;;;2.00;1.42;;;17.80;99.90;;;;;;4989366;28;20058;-70
2023/06/29 00:30:44;;;;;;;1.98;1.52;;;17.90;99.90;;;;;;4993628;28;20497;-71
2023/06/29 00:33:10;;;;;;;2.58;1.30;;;18.00;99.90;;;;;;5003965;28;20043;-70
2023/06/29 00:35:35;;;;;;;2.47;1.15;;;17.90;99.90;;;;;;4993784;28;20041;-71
2023/06/29 00:38:01;;;;;;;2.40;1.20;;;17.90;99.90;;;;;;4988575;28;20030;-70
2023/06/29 00:40:27;;;;;;;3.17;1.80;;;17.80;99.90;;;;;;4993385;28;20393;-71
2023/06/29 00:42:55;;;;;;;2.63;1.58;;;17.70;99.90;;;;;;5004429;28;20054;-70
2023/06/29 00:45:21;;;;;;;2.60;1.42;;;17.80;99.90;;;;;;4993663;28;20109;-70
2023/06/29 00:47:47;;;;;;;2.55;1.50;;;17.90;99.90;;;;;;4987992;28;20113;-71
2023/06/29 00:50:13;;;;;;;2.72;1.50;;;17.90;99.90;;;;;;5008497;28;20089;-70
2023/06/29 00:52:40;;;;;;;3.17;1.42;;;17.90;99.90;;;;;;5003738;28;20498;-70
2023/06/29 00:55:06;;;;;;;4.47;2.05;;;17.70;99.90;;;;;;5008829;28;20038;-71
2023/06/29 00:57:32;;;;;;;3.42;2.15;;;17.70;99.90;;;;;;4988405;28;20092;-70
2023/06/29 01:00:00;;;;;;;2.63;1.70;;;17.70;99.90;;;;;;4991680;28;20026;-71
2023/06/29 01:02:29;;;;;;;2.38;1.42;;;17.80;99.90;;;;;;4988259;28;20054;-71
2023/06/29 01:04:57;;;;;;;2.83;1.40;;;17.80;99.90;;;;;;5003291;28;20023;-70
2023/06/29 01:07:32;;;;;;;1.70;1.40;;;17.90;99.90;;;;;;5001106;28;20065;-71
2023/06/29 01:09:59;;;;;;;4.00;1.23;;;18.00;99.90;;;;;;5007429;28;20488;-71
2023/06/29 01:12:26;;;;;;;3.22;1.45;;;18.00;99.90;;;;;;4986795;28;20062;-71
2023/06/29 01:14:54;;;;;;;3.45;1.77;;;17.90;99.90;;;;;;5007923;28;20080;-71
2023/06/29 01:17:25;;;;;;;2.60;1.50;;;17.70;99.90;;;;;;5003345;28;20027;-71
2023/06/29 01:19:52;;;;;;;3.15;1.50;;;17.60;99.90;;;;;;5007334;28;20046;-72
2023/06/29 01:22:29;;;;;;;2.30;1.60;;;17.70;99.90;;;;;;5002921;28;20442;-72
2023/06/29 01:24:56;;;;;;;2.63;1.33;;;17.70;99.90;;;;;;4992924;28;20118;-72
2023/06/29 01:27:21;;;;;;;2.25;1.40;;;17.80;99.90;;;;;;4989679;28;20442;-72
2023/06/29 01:29:47;;;;;;;4.40;1.50;;;17.70;99.90;;;;;;4992732;28;20030;-72
2023/06/29 01:32:14;;;;;;;3.97;1.77;;;17.90;99.90;;;;;;4987778;28;20093;-71
2023/06/29 01:34:40;;;;;;;3.88;2.03;;;17.90;99.90;;;;;;5007589;28;20030;-72
2023/06/29 01:37:17;;;;;;;5.20;2.22;;;17.90;99.90;;;;;;5003212;28;20026;-72
2023/06/29 01:40:05;;;;;;;2.60;1.67;;;17.80;99.90;;;;;;5007139;28;20517;-71
2023/06/29 01:42:33;;;;;;;4.10;1.73;;;17.60;99.90;;;;;;4975737;28;20052;-72
2023/06/29 01:45:01;;;;;;;3.17;1.88;;;17.50;99.90;;;;;;4996133;28;20030;-72
2023/06/29 01:47:29;;;;;;;3.25;1.52;;;17.60;99.90;;;;;;5000036;28;20033;-72
2023/06/29 01:49:55;;;;;;;2.55;1.60;;;17.50;99.90;;;;;;4990629;28;20113;-72
2023/06/29 01:52:22;;;;;;;3.60;1.50;;;17.50;99.90;;;;;;4986254;28;20137;-72
2023/06/29 01:54:48;;;;;;;6.57;1.42;;;17.30;99.90;;;;;;4992304;28;20114;-72
2023/06/29 01:57:14;;;;;;;3.63;2.03;;;17.10;99.90;;;;;;4987803;28;20398;-72
2023/06/29 01:59:40;;;;;;;4.15;1.58;;;17.10;99.90;;;;;;4991779;28;20047;-72
2023/06/29 02:02:07;;;;;;;4.18;2.08;;;17.20;99.90;;;;;;4987781;28;20031;-72
2023/06/29 02:04:33;;;;;;;2.78;1.52;;;17.30;99.90;;;;;;4990449;28;20014;-72
2023/06/29 02:07:00;;;;;;;4.53;1.50;;;17.30;99.90;;;;;;5003762;28;20023;-71
2023/06/29 02:09:26;;;;;;;6.28;1.83;;;17.00;99.90;;;;;;5005773;28;20382;-72
2023/06/29 02:11:52;;;;;;;2.17;1.52;;;17.00;99.90;;;;;;5004259;28;20026;-72
2023/06/29 02:14:18;;;;;;;1.70;1.30;;;17.10;99.90;;;;;;4989572;28;20533;-72
2023/06/29 02:16:46;;;;;;;6.20;1.77;;;17.00;99.90;;;;;;5005779;28;20534;-72
2023/06/29 02:19:12;;;;;;;4.75;1.73;;;17.10;99.90;;;;;;5003832;28;20037;-71
2023/06/29 02:21:38;;;;;;;2.88;1.67;;;17.10;99.90;;;;;;4991025;28;20038;-71
2023/06/29 02:24:04;;;;;;;4.13;2.00;;;17.10;99.90;;;;;;4988050;28;20038;-71
2023/06/29 02:26:30;;;;;;;2.15;1.60;;;17.20;99.90;;;;;;5006876;28;20398;-70
2023/06/29 02:28:55;;;;;;;4.05;1.60;;;17.20;99.90;;;;;;4986125;28;20100;-71
2023/06/29 02:31:21;;;;;;;2.25;1.35;;;17.30;99.90;;;;;;4991508;28;20031;-71
2023/06/29 02:33:49;;;;;;;2.90;1.80;;;17.20;99.90;;;;;;4986901;28;20406;-72
2023/06/29 02:36:20;;;;;;;2.85;1.80;;;17.30;99.90;;;;;;4991687;28;20037;-71
2023/06/29 02:38:47;;;;;;;3.95;2.35;;;17.20;99.90;;;;;;4987141;28;20387;-71
2023/06/29 02:41:13;;;;;;;2.65;1.27;;;17.00;99.90;;;;;;5006587;28;20037;-72
2023/06/29 02:43:39;;;;;;;2.85;1.52;;;16.80;99.90;;;;;;5001841;28;20030;-72
2023/06/29 02:46:04;;;;;;;3.60;1.60;;;16.80;99.90;;;;;;4991553;28;20034;-72
2023/06/29 02:48:30;;;;;;;3.13;1.65;;;16.90;99.90;;;;;;5001756;28;20121;-72
2023/06/29 02:50:57;;;;;;;4.13;1.67;;;17.00;99.90;;;;;;4991115;28;20051;-73
2023/06/29 02:53:22;;;;;;;2.80;1.63;;;17.00;99.90;;;;;;4986445;28;20476;-72
2023/06/29 02:55:48;;;;;;;4.88;1.85;;;17.10;99.90;;;;;;4991423;28;20105;-72
2023/06/29 02:58:14;;;;;;;5.78;2.47;;;17.10;99.90;;;;;;4986749;28;20076;-72
2023/06/29 03:00:39;;;;;;;4.30;1.92;;;17.00;99.90;;;;;;4990984;28;20501;-72
2023/06/29 03:03:05;;;;;;;4.03;2.00;;;16.80;99.90;;;;;;4985127;28;20030;-72
2023/06/29 03:05:31;;;;;;;4.35;1.77;;;16.60;99.90;;;;;;4990743;28;20039;-72
2023/06/29 03:07:57;;;;;;;2.72;1.45;;;16.60;99.90;;;;;;4985765;28;20034;-72
2023/06/29 03:10:22;;;;;;;2.65;1.55;;;16.60;99.90;;;;;;4990696;28;20037;-72
2023/06/29 03:12:48;;;;;;;3.20;1.92;;;16.60;99.90;;;;;;4984883;28;20037;-72
2023/06/29 03:15:14;;;;;;;2.67;1.60;;;16.50;99.90;;;;;;4991242;28;20037;-72
2023/06/29 03:17:40;;;;;;;4.63;1.63;;;16.50;99.90;;;;;;4986512;28;20534;-72
2023/06/29 03:20:06;;;;;;;2.45;1.30;;;16.60;99.90;;;;;;4990849;28;20387;-72
2023/06/29 03:22:33;;;;;;;2.55;1.33;;;16.70;99.90;;;;;;4986206;28;20084;-72
2023/06/29 03:24:59;;;;;;;2.42;1.65;;;16.50;99.90;;;;;;5006171;28;20026;-73
2023/06/29 03:27:24;;;;;;;3.63;1.83;;;16.50;99.90;;;;;;5001464;28;20503;-72
2023/06/29 03:29:53;;;;;;;3.13;1.83;;;16.30;99.90;;;;;;5005640;28;20038;-72
2023/06/29 03:32:29;;;;;;;3.70;1.98;;;16.30;99.90;;;;;;5001063;28;20027;-72
2023/06/29 03:34:55;;;;;;;4.57;1.77;;;16.30;99.90;;;;;;5005570;28;20102;-72
2023/06/29 03:37:21;;;;;;;3.85;2.08;;;16.40;99.90;;;;;;5001376;28;20102;-72
2023/06/29 03:39:46;;;;;;;4.07;1.65;;;16.20;99.90;;;;;;5005461;28;20085;-72
2023/06/29 03:42:12;;;;;;;3.95;1.75;;;16.30;99.90;;;;;;4986212;28;20474;-72
2023/06/29 03:44:39;;;;;;;9.20;3.00;;;16.40;99.90;;;;;;4990589;28;20077;-72
2023/06/29 03:47:06;;;;;;;4.43;1.83;;;16.40;99.90;;;;;;4986807;28;20434;-72
2023/06/29 03:49:33;;;;;;;6.10;1.70;;;16.30;99.90;;;;;;4989917;28;20053;-72
2023/06/29 03:51:59;;;;;;;5.18;1.70;;;16.40;99.90;;;;;;4987412;28;20097;-72
2023/06/29 03:54:26;;;;;;;2.60;1.40;;;16.50;99.90;;;;;;4987903;28;20458;-72
2023/06/29 03:56:52;;;;;;;5.18;1.98;;;16.50;99.90;;;;;;5003112;28;20449;-71
2023/06/29 03:59:17;;;;;;;3.25;1.67;;;16.70;99.90;;;;;;5003333;28;20027;-72
2023/06/29 04:01:43;;;;;;;2.00;1.50;;;16.80;99.90;;;;;;4989498;28;20030;-72
2023/06/29 04:04:09;;;;;;;3.88;2.08;;;16.90;99.90;;;;;;4987155;28;20030;-72
2023/06/29 04:06:35;;;;;;;5.47;2.33;;;17.00;99.90;;;;;;4990036;28;20092;-71
2023/06/29 04:09:00;;;;;;;6.35;1.85;;;17.00;99.90;;;;;;4986469;28;20045;-71
2023/06/29 04:11:26;;;;;;;2.72;1.73;;;17.10;99.90;;;;;;4990550;28;20038;-72
2023/06/29 04:13:52;;;;;;;6.72;2.22;;;17.20;99.90;;;;;;4987892;28;20035;-71
2023/06/29 04:16:17;;;;;;;4.13;1.63;;;17.10;99.90;;;;;;4994310;28;20037;-72
2023/06/29 04:18:43;;;;;;;4.00;1.75;;;17.00;99.90;;;;;;5004992;23;20434;-72
2023/06/29 04:21:09;;;;;;;3.33;1.85;;;17.00;99.90;;;;;;5007883;28;20041;-71
2023/06/29 04:23:35;;;;;;;4.35;2.30;;;17.00;99.90;;;;;;5005713;28;20022;-71
2023/06/29 04:26:04;;;;;;;3.75;2.35;;;17.10;99.90;;;;;;5009597;28;20080;-71
2023/06/29 04:28:34;;;;;;;4.10;1.70;;;17.10;99.90;;;;;;5009587;28;20025;-72
2023/06/29 04:31:00;;;;;;;6.97;2.13;;;17.20;99.90;;;;;;4988609;28;20062;-72
2023/06/29 04:33:26;;;;;;;4.65;2.50;;;17.30;99.90;;;;;;4993525;28;20038;-72
2023/06/29 04:35:52;;;;;;;4.78;2.30;;;17.30;99.90;;;;;;4993042;28;20541;-72
2023/06/29 04:38:17;;;;;;;3.65;2.10;;;17.30;99.90;;;;;;5009019;28;20026;-72
2023/06/29 04:40:43;;;;;;;3.45;2.00;;;17.40;99.90;;;;;;4995164;28;20403;-72
2023/06/29 04:43:09;;;;;;;6.70;2.30;;;17.50;99.90;;;;;;4969095;28;20038;-72
2023/06/29 04:45:35;;;;;;;6.68;2.95;;;17.70;99.90;;;;;;4994668;28;20390;-72
2023/06/29 04:48:02;;;;;;;8.52;2.92;;;17.80;99.90;;;;;;4993553;28;20038;-72
2023/06/29 04:50:35;;;;;;;6.80;3.97;;;17.90;99.90;;;;;;4987364;28;20035;-68
2023/06/29 04:53:11;;;;;;;6.55;2.70;;;18.00;99.90;;;;;;4990344;28;20061;-61
2023/06/29 04:55:40;;;;;;;6.05;3.20;;;18.10;99.90;;;;;;5007890;28;20034;-64
2023/06/29 04:58:06;;;;;;;6.18;3.63;;;18.10;99.90;;;;;;4994050;28;20021;-61
2023/06/29 05:00:32;;;;;;;6.90;2.72;;;18.10;99.90;;;;;;4990115;28;20037;-61
2023/06/29 05:02:59;;;;;;;8.88;3.65;;;18.20;99.90;;;;;;4994989;28;20043;-61
2023/06/29 05:05:25;;;;;;;5.90;2.90;;;18.30;99.90;;;;;;4988241;28;20040;-64
2023/06/29 05:07:51;;;;;;;5.97;2.67;;;18.50;99.90;;;;;;4991874;28;20062;-62
2023/06/29 05:10:17;;;;;;;4.70;2.22;;;18.60;99.90;;;;;;4991872;28;20034;-62
2023/06/29 05:12:43;;;;;;;7.13;2.25;;;18.60;99.90;;;;;;4992893;28;20049;-63
2023/06/29 05:15:09;;;;;;;8.07;2.42;;;18.60;99.90;;;;;;4992522;28;20027;-62
2023/06/29 05:17:35;;;;;;;7.68;3.25;;;18.80;99.90;;;;;;4993359;28;20030;-62
2023/06/29 05:20:00;;;;;;;5.35;2.22;;;18.70;99.90;;;;;;4991852;28;20034;-62
2023/06/29 05:22:26;;;;;;;4.05;2.38;;;18.90;99.90;;;;;;4992621;28;20382;-62
2023/06/29 05:24:52;;;;;;;7.32;2.42;;;18.70;99.90;;;;;;4991584;28;20038;-62
2023/06/29 05:27:17;;;;;;;4.30;2.33;;;18.60;99.90;;;;;;4992700;28;20053;-62
2023/06/29 05:29:43;;;;;;;5.18;2.40;;;18.70;99.90;;;;;;4991280;28;20030;-62
2023/06/29 05:32:09;;;;;;;3.60;2.33;;;18.70;99.90;;;;;;4992003;28;20027;-62
2023/06/29 05:34:35;;;;;;;6.97;2.20;;;18.90;99.90;;;;;;4992096;28;20033;-62
2023/06/29 05:37:02;;;;;;;4.15;2.30;;;19.00;99.90;;;;;;4992032;28;20049;-62
2023/06/29 05:39:27;;;;;;;6.63;2.25;;;19.00;99.90;;;;;;4990129;28;20054;-62
2023/06/29 05:41:53;;;;;;;5.05;2.65;;;19.00;99.90;;;;;;4991926;28;20054;-62
2023/06/29 05:44:19;;;;;;;4.25;2.47;;;19.20;99.90;;;;;;4991564;28;20035;-62
2023/06/29 05:46:45;;;;;;;3.15;1.67;;;19.20;99.90;;;;;;4992357;28;20041;-63
2023/06/29 05:49:10;;;;;;;5.82;1.90;;;19.40;99.90;;;;;;4991081;28;20041;-63
2023/06/29 05:51:37;;;;;;;5.57;2.78;;;19.60;99.90;;;;;;4991527;28;20026;-62
2023/06/29 05:54:04;;;;;;;4.80;2.05;;;19.70;99.90;;;;;;4989745;28;20129;-62
2023/06/29 05:56:31;;;;;;;7.43;3.03;;;19.70;99.90;;;;;;4990974;28;20029;-63
2023/06/29 05:58:57;;;;;;;5.82;1.90;;;19.70;99.90;;;;;;4989610;28;20041;-66
2023/06/29 06:01:23;;;;;;;4.32;1.95;;;19.80;99.90;;;;;;4990497;28;20030;-73
2023/06/29 06:03:49;;;;;;;4.90;1.98;;;19.90;99.90;;;;;;4989105;28;20050;-71
2023/06/29 06:06:15;;;;;;;3.70;2.40;;;20.10;99.90;;;;;;4989922;28;20026;-70
2023/06/29 06:08:41;;;;;;;4.05;2.25;;;19.90;99.90;;;;;;4989294;28;20037;-69
2023/06/29 06:11:07;;;;;;;5.20;2.55;;;19.90;99.90;;;;;;4991184;28;20033;-68
2023/06/29 06:13:32;;;;;;;3.42;1.95;;;19.90;99.90;;;;;;4991105;28;20038;-70
2023/06/29 06:15:58;;;;;;;5.18;2.30;;;19.90;99.90;;;;;;4990455;28;20034;-69
2023/06/29 06:18:24;;;;;;;3.50;2.20;;;20.00;99.90;;;;;;4981425;28;20355;-69
2023/06/29 06:20:50;;;;;;;3.40;2.03;;;20.20;99.90;;;;;;4989476;28;20030;-68
2023/06/29 06:23:15;;;;;;;3.97;2.05;;;20.30;99.90;;;;;;4988853;28;20088;-69
2023/06/29 06:25:41;;;;;;;19.30;4.93;;;20.40;99.90;;;;;;4990727;28;20137;-54
2023/06/29 06:28:07;;;;;;;20.65;3.42;;;20.50;99.90;;;;;;4990714;28;20034;-56
2023/06/29 06:30:33;;;;;;;6.85;2.55;;;20.60;99.90;;;;;;4991032;28;20118;-55
2023/06/29 06:33:01;;;;;;;7.43;3.05;;;20.80;99.90;;;;;;4990525;28;20542;-51
2023/06/29 06:35:28;;;;;;;3.47;2.55;;;20.80;99.90;;;;;;5004832;28;20023;-52
2023/06/29 06:37:54;;;;;;;4.90;2.20;;;20.90;99.90;;;;;;4989811;28;20037;-54
2023/06/29 06:40:20;;;;;;;4.63;2.20;;;20.90;99.90;;;;;;4988225;28;20031;-56
2023/06/29 06:42:46;;;;;;;6.60;2.45;;;21.00;99.90;;;;;;4991347;28;20502;-53
2023/06/29 06:45:13;;;;;;;6.88;2.60;;;21.20;99.90;;;;;;4990719;28;20086;-55
2023/06/29 06:47:39;;;;;;;3.15;2.05;;;21.40;99.90;;;;;;4991277;28;20121;-52
2023/06/29 06:50:06;;;;;;;9.82;1.85;;;21.50;99.90;;;;;;4989377;28;20109;-54
2023/06/29 06:52:31;;;;;;;4.43;1.88;;;21.70;99.90;;;;;;4988700;28;20029;-53
2023/06/29 06:54:57;;;;;;;3.92;2.47;;;21.80;99.90;;;;;;4988017;28;20038;-54
2023/06/29 06:57:24;;;;;;;4.72;2.15;;;21.90;99.90;;;;;;4990224;28;20886;-55
2023/06/29 06:59:49;;;;;;;9.02;2.55;;;22.00;99.90;;;;;;4995156;28;20034;-53
2023/06/29 07:02:15;;;;;;;4.18;1.90;;;22.10;99.90;;;;;;4985537;28;20033;-52
2023/06/29 07:04:41;;;;;;;4.15;1.88;;;22.30;99.90;;;;;;4989538;28;20038;-55
2023/06/29 07:07:08;;;;;;;3.50;1.90;;;22.40;99.90;;;;;;4990727;28;20534;-50
2023/06/29 07:09:34;;;;;;;4.00;1.98;;;22.40;99.90;;;;;;4984647;28;20061;-55
2023/06/29 07:12:00;;;;;;;3.65;2.28;;;22.30;99.90;;;;;;4985704;28;20030;-56
2023/06/29 07:14:26;;;;;;;5.43;1.77;;;22.60;99.90;;;;;;4990224;28;20808;-54
2023/06/29 07:16:52;;;;;;;5.25;1.90;;;22.80;99.90;;;;;;4989867;28;20563;-52
2023/06/29 07:19:18;;;;;;;10.55;2.17;;;22.80;99.90;;;;;;4990309;28;20073;-55
2023/06/29 07:21:43;;;;;;;7.97;1.50;;;22.70;99.90;;;;;;4988973;28;20033;-55
2023/06/29 07:24:12;;;;;;;5.57;2.20;;;22.80;99.90;;;;;;4989178;28;20034;-53
2023/06/29 07:26:39;;;;;;;4.90;1.65;;;23.00;99.90;;;;;;4959592;28;20069;-54
2023/06/29 07:29:05;;;;;;;5.38;1.90;;;23.10;99.70;;;;;;4978000;28;20041;-55
2023/06/29 07:31:31;;;;;;;5.00;2.00;;;23.10;99.50;;;;;;4988423;28;20041;-52
2023/06/29 07:33:57;;;;;;;2.38;1.65;;;23.30;99.30;;;;;;4989003;28;20030;-52
2023/06/29 07:36:26;;;;;;;4.57;1.85;;;23.30;98.60;;;;;;4984591;28;20044;-52
2023/06/29 07:38:52;;;;;;;8.50;1.75;;;23.30;98.60;;;;;;4990570;28;20048;-52
2023/06/29 07:41:19;;;;;;;3.95;1.80;;;23.20;98.70;;;;;;4989365;28;20113;-53
2023/06/29 07:43:54;;;;;;;5.68;2.53;;;23.30;98.70;;;;;;4989709;28;20534;-54
2023/06/29 07:46:20;;;;;;;4.30;2.15;;;23.60;98.30;;;;;;4989008;28;20121;-55
2023/06/29 07:48:47;;;;;;;4.85;2.25;;;23.80;97.40;;;;;;4990082;28;20030;-54
2023/06/29 07:51:14;;;;;;;2.28;1.40;;;23.90;97.20;;;;;;4984479;28;20036;-54
2023/06/29 07:53:40;;;;;;;3.28;1.63;;;24.10;96.70;;;;;;4978394;28;20128;-51
2023/06/29 07:56:06;;;;;;;3.53;1.60;;;24.30;96.20;;;;;;4982936;28;20485;-54
2023/06/29 07:58:32;;;;;;;2.90;1.50;;;24.10;96.00;;;;;;4983621;28;20041;-53
2023/06/29 08:00:57;;;;;;;5.72;1.42;;;23.80;96.20;;;;;;4982310;28;20046;-50
2023/06/29 08:03:23;;;;;;;3.53;1.58;;;24.00;96.10;;;;;;4990754;28;20038;-52
2023/06/29 08:05:50;;;;;;;6.45;1.70;;;24.20;95.50;;;;;;4998511;28;20034;-54
2023/06/29 08:08:16;;;;;;;4.70;1.25;;;24.30;94.70;;;;;;4983421;28;20034;-52
2023/06/29 08:10:43;;;;;;;4.18;1.30;;;24.60;94.60;;;;;;4988893;28;20117;-52
2023/06/29 08:13:09;;;;;;;2.13;1.20;;;24.30;94.40;;;;;;4993594;28;20117;-51
2023/06/29 08:15:34;;;;;;;1.90;1.08;;;24.20;94.80;;;;;;4993348;28;20046;-51
2023/06/29 08:18:00;;;;;;;4.28;1.50;;;24.30;94.40;;;;;;4993420;28;20493;-54
2023/06/29 08:20:26;;;;;;;2.85;1.40;;;24.40;94.40;;;;;;4992753;28;20061;-53
2023/06/29 08:22:52;;;;;;;8.18;1.33;;;24.50;94.10;;;;;;4991819;28;20109;-53
2023/06/29 08:25:21;;;;;;;3.40;1.25;;;24.50;93.10;;;;;;4992723;28;20062;-53
2023/06/29 08:27:46;;;;;;;4.30;1.85;;;24.30;93.70;;;;;;4992980;28;20112;-53
2023/06/29 08:30:12;;;;;;;3.97;1.30;;;24.20;93.10;;;;;;4992475;28;20577;-52
2023/06/29 08:32:38;;;;;;;1.40;1.00;;;24.50;93.90;;;;;;4993285;28;20039;-54
2023/06/29 08:35:05;;;;;;;1.38;0.73;;;24.60;93.30;;;;;;4992938;28;20030;-54
2023/06/29 08:37:31;;;;;;;5.13;1.33;;;24.80;93.40;;;;;;4993215;28;20053;-54
2023/06/29 08:39:57;;;;;;;1.90;0.90;;;25.10;93.20;;;;;;4991125;28;20038;-55
2023/06/29 08:42:24;;;;;;;4.53;1.60;;;25.40;92.60;;;;;;4992219;28;20548;-53
2023/06/29 08:44:50;;;;;;;4.65;2.08;;;25.40;92.70;;;;;;4992548;28;20034;-51
2023/06/29 08:47:17;;;;;;;6.22;1.10;;;25.50;92.70;;;;;;4991706;28;20022;-52
2023/06/29 08:49:43;;;;;;;1.95;1.10;;;25.60;92.20;;;;;;4991970;28;20034;-55
2023/06/29 08:52:22;;;;;;;3.85;1.33;;;25.40;92.10;;;;;;5007619;28;20030;-53
2023/06/29 08:54:50;;;;;;;2.33;1.30;;;25.70;91.70;;;;;;4975033;28;20057;-54
2023/06/29 08:57:16;;;;;;;2.28;1.05;;;26.00;91.30;;;;;;4993750;28;20038;-53
2023/06/29 08:59:43;;;;;;;3.42;1.50;;;25.90;91.50;;;;;;4993817;28;20030;-52
2023/06/29 09:02:10;;;;;;;1.88;1.13;;;25.50;91.70;;;;;;4986281;28;20134;-55
2023/06/29 09:04:36;;;;;;;2.30;1.00;;;25.20;91.40;;;;;;4974570;28;20029;-50
2023/06/29 09:07:05;;;;;;;1.92;1.40;;;25.40;92.10;;;;;;4998639;28;20393;-51
2023/06/29 09:09:31;;;;;;;1.48;0.77;;;25.80;91.30;;;;;;4987162;28;20046;-51
2023/06/29 09:11:56;;;;;;;1.08;0.95;;;26.00;91.30;;;;;;4992265;28;20132;-54
2023/06/29 09:14:23;;;;;;;2.47;0.80;;;26.20;90.90;;;;;;4992138;28;20034;-54
2023/06/29 09:16:58;;;;;;;1.48;0.85;;;26.40;90.60;;;;;;4992636;28;20061;-55
2023/06/29 09:19:24;;;;;;;1.80;1.00;;;26.60;90.60;;;;;;4991896;28;20131;-53
2023/06/29 09:21:51;;;;;;;1.35;0.95;;;27.00;90.00;;;;;;4992143;28;20030;-53
2023/06/29 09:24:20;;;;;;;2.05;0.95;;;27.10;89.10;;;;;;4990558;28;20058;-55
2023/06/29 09:26:53;;;;;;;3.23;1.10;;;27.10;89.00;;;;;;5007214;28;20093;-54
2023/06/29 09:29:20;;;;;;;2.90;1.20;;;26.70;89.00;;;;;;4991768;28;20019;-54
2023/06/29 09:31:59;;;;;;;2.53;0.70;;;26.30;90.00;;;;;;4992220;28;20023;-55
2023/06/29 09:34:27;;;;;;;1.02;0.75;;;26.60;89.70;;;;;;4991308;28;20036;-54
2023/06/29 09:36:55;;;;;;;2.63;1.00;;;26.90;89.10;;;;;;5007292;28;20041;-71
2023/06/29 09:39:22;;;;;;;2.70;1.10;;;26.90;88.60;;;;;;4991552;28;20491;-71
2023/06/29 09:41:55;;;;;;;6.18;0.85;;;27.00;87.90;;;;;;4991528;28;20026;-72
2023/06/29 09:44:23;;;;;;;3.45;1.10;;;27.10;86.60;;;;;;4990213;28;20031;-72
2023/06/29 09:47:02;;;;;;;0.45;0.40;;;26.80;87.10;;;;;;4991901;28;20046;-74
2023/06/29 09:49:28;;;;;;;2.08;1.00;;;26.90;87.10;;;;;;4991317;28;20117;-72
2023/06/29 09:52:03;;;;;;;2.22;0.90;;;26.90;87.10;;;;;;4991505;28;20458;-71
2023/06/29 09:54:37;;;;;;;2.90;0.82;;;26.90;87.50;;;;;;4991128;28;20030;-71
2023/06/29 09:57:03;;;;;;;3.00;0.77;;;27.00;87.30;;;;;;5006309;28;20490;-70
2023/06/29 09:59:35;;;;;;;2.17;0.98;;;27.20;87.10;;;;;;4989938;28;20034;-71
2023/06/29 10:02:01;;;;;;;1.77;0.98;;;27.30;86.40;;;;;;4991581;28;20101;-72
2023/06/29 10:04:27;;;;;;;2.38;1.10;;;27.00;85.90;;;;;;4990970;28;20543;-75
2023/06/29 10:07:17;;;;;;;1.25;0.80;;;26.80;86.10;;;;;;4991647;28;20038;-72
2023/06/29 10:09:47;;;;;;;2.40;1.33;;;26.60;87.60;;;;;;4990710;28;20038;-71
2023/06/29 10:12:15;;;;;;;4.68;0.95;;;26.10;88.10;;;;;;4991340;28;20042;-70
2023/06/29 10:14:45;;;;;;;3.10;1.45;;;26.10;88.40;;;;;;4989676;28;20066;-73
2023/06/29 10:17:27;;;;;;;4.25;1.65;;;26.10;88.10;;;;;;4990156;28;20053;-76
2023/06/29 10:19:57;;;;;;;4.13;1.80;;;26.20;89.20;;;;;;4988994;28;20130;-73
2023/06/29 10:22:26;;;;;;;2.42;1.25;;;26.60;88.40;;;;;;5006053;22;20069;-68
2023/06/29 10:24:57;;;;;;;1.17;0.88;;;26.70;88.20;;;;;;5007944;28;20084;-68
2023/06/29 10:27:25;;;;;;;;;;;27.10;86.80;;;;;;5009773;28;20037;-68
2023/06/29 10:29:51;;;;;;;2.63;1.65;;;26.70;87.90;;;;;;5003770;28;20364;-68
2023/06/29 10:32:37;;;;;;;2.28;1.45;;;26.80;87.20;;;;;;5010810;28;20042;-68
2023/06/29 10:35:11;;;;;;;5.50;1.70;;;26.90;87.50;;;;;;5006735;28;20042;-69
2023/06/29 10:37:42;;;;;;;2.78;1.30;;;27.10;87.20;;;;;;4992695;28;20061;-71
2023/06/29 10:40:10;;;;;;;2.05;1.08;;;27.00;86.50;;;;;;5003230;28;20038;-72
2023/06/29 10:42:39;;;;;;;2.50;1.40;;;26.90;87.40;;;;;;5002717;28;20452;-70
2023/06/29 10:45:20;;;;;;;7.07;1.23;;;27.00;87.30;;;;;;5010778;28;20426;-70
2023/06/29 10:48:12;;;;;;;2.75;1.35;;;27.20;85.70;;;;;;4994665;28;20046;-69
2023/06/29 10:50:44;;;;;;;4.93;1.50;;;27.40;86.50;;;;;;5000744;28;20588;-68
2023/06/29 10:53:13;;;;;;;1.98;1.00;;;27.60;86.80;;;;;;5021349;28;20038;-67
2023/06/29 10:55:52;;;;;;;3.00;1.70;;;27.30;85.80;;;;;;5009411;28;20101;-68
2023/06/29 10:58:28;;;;;;;2.70;1.15;;;27.30;85.80;;;;;;5010121;28;20025;-68
2023/06/29 11:00:55;;;;;;;3.55;1.35;;;27.00;85.90;;;;;;5009246;28;20021;-68
2023/06/29 11:03:23;;;;;;;1.67;0.95;;;26.40;86.30;;;;;;5002721;28;20026;-68
2023/06/29 11:05:54;;;;;;;2.50;1.42;;;26.10;86.40;;;;;;5009329;28;20048;-68
2023/06/29 11:08:21;;;;;;;5.53;1.30;;;26.30;87.20;;;;;;5009854;28;20022;-67
2023/06/29 11:10:47;;;;;;;2.47;0.93;;;26.20;86.60;;;;;;5012792;28;20389;-67
2023/06/29 11:13:13;;;;;;;4.60;1.83;;;26.30;86.90;;;;;;5020885;28;20030;-68
2023/06/29 11:15:40;;;;;;;3.45;1.40;;;26.30;86.30;;;;;;5008773;28;20053;-68
2023/06/29 11:18:08;;;;;;;3.08;1.20;;;26.30;86.10;;;;;;5010224;28;20076;-68
2023/06/29 11:20:39;;;;;;;2.10;1.00;;;26.10;86.10;;;;;;5000278;28;20030;-68
2023/06/29 11:23:07;;;;;;;3.10;1.08;;;26.00;85.40;;;;;;4992305;28;20088;-68
2023/06/29 11:25:34;;;;;;;2.22;1.10;;;25.90;84.80;;;;;;5014182;28;20788;-68
2023/06/29 11:28:01;;;;;;;4.00;1.10;;;26.00;84.90;;;;;;5009084;28;20063;-67
2023/06/29 11:30:27;;;;;;;2.05;1.00;;;26.20;84.30;;;;;;5012101;28;20037;-68
2023/06/29 11:32:53;;;;;;;4.20;1.00;;;26.20;84.30;;;;;;5007218;28;20401;-68
2023/06/29 11:35:21;;;;;;;4.78;1.30;;;26.30;83.80;;;;;;5012742;28;20385;-67
2023/06/29 11:38:01;;;;;;;2.88;1.17;;;26.20;84.20;;;;;;5012540;28;20482;-68
2023/06/29 11:40:28;;;;;;;4.15;1.10;;;26.40;83.50;;;;;;5013667;28;20038;-69
2023/06/29 11:42:54;;;;;;;1.38;0.90;;;26.20;84.30;;;;;;5013597;28;20033;-69
2023/06/29 11:45:21;;;;;;;5.18;0.88;;;26.30;83.60;;;;;;5013523;28;20390;-69
2023/06/29 11:47:54;;;;;;;2.97;1.13;;;26.20;83.20;;;;;;5013642;28;20061;-68
2023/06/29 11:50:20;;;;;;;6.40;1.42;;;26.30;84.00;;;;;;5013139;28;20363;-69
2023/06/29 11:52:46;;;;;;;1.95;1.10;;;26.30;83.90;;;;;;5016255;28;20040;-69
2023/06/29 11:55:15;;;;;;;2.13;0.98;;;26.40;83.30;;;;;;5013772;28;20084;-69
2023/06/29 11:57:43;;;;;;;1.55;0.98;;;26.20;83.50;;;;;;5012025;28;20026;-69
2023/06/29 12:00:15;;;;;;;2.83;1.27;;;26.10;83.90;;;;;;5007584;28;20105;-69
2023/06/29 12:02:41;;;;;;;1.05;0.73;;;26.00;84.50;;;;;;4996789;28;20398;-69
2023/06/29 12:05:08;;;;;;;3.20;1.38;;;26.10;84.40;;;;;;5013335;28;20029;-69
2023/06/29 12:07:45;;;;;;;3.70;1.20;;;25.90;85.10;;;;;;4994475;28;20035;-69
2023/06/29 12:10:21;;;;;;;3.10;1.25;;;25.90;85.10;;;;;;5013112;28;20034;-69
2023/06/29 12:12:58;;;;;;;2.40;1.10;;;25.80;85.30;;;;;;5005659;28;20490;-69
2023/06/29 12:15:26;;;;;;;2.92;1.30;;;25.90;84.80;;;;;;5012762;28;20030;-68
2023/06/29 12:18:01;;;;;;;2.13;0.82;;;25.70;85.00;;;;;;5010116;28;20781;-67
2023/06/29 12:20:46;;;;;;;1.35;0.93;;;26.00;85.80;;;;;;5011379;28;20053;-68
2023/06/29 12:23:15;;;;;;;5.32;1.50;;;25.90;85.10;;;;;;5005945;28;20564;-68
2023/06/29 12:25:50;;;;;;;1.52;1.00;;;26.00;86.30;;;;;;5003795;28;20052;-67
2023/06/29 12:28:16;;;;;;;2.50;1.30;;;26.10;85.80;;;;;;5000492;28;20127;-67
2023/06/29 12:30:42;;;;;;;1.98;1.13;;;25.90;86.20;;;;;;5015125;28;20038;-68
2023/06/29 12:33:11;;;;;;;1.60;0.90;;;26.10;85.50;;;;;;5003367;28;20037;-67
2023/06/29 12:35:37;;;;;;;2.83;1.13;;;26.20;85.70;;;;;;5006514;28;20084;-68
2023/06/29 12:38:04;;;;;;;4.32;1.13;;;26.20;85.60;;;;;;5002540;28;20486;-69
2023/06/29 12:40:30;;;;;;;2.00;1.33;;;26.20;85.80;;;;;;5002888;28;20510;-68
2023/06/29 12:42:56;;;;;;;3.72;1.27;;;26.40;85.20;;;;;;5003539;28;20038;-69
2023/06/29 12:45:22;;;;;;;6.25;1.60;;;26.60;84.80;;;;;;5006177;28;20034;-68
2023/06/29 12:47:48;;;;;;;1.55;0.93;;;26.50;84.60;;;;;;5010405;28;20038;-69
2023/06/29 12:50:14;;;;;;;2.58;1.00;;;26.30;85.10;;;;;;5009253;28;20543;-68